sensor_id;sensor_type;location;lat;lon;timestamp;P1;durP1;ratioP1;P2;durP2;ratioP2
31660;SDS011;18267;52.234;7.444;2023-05-10T00:01:07;2.80;;;2.60;;
31660;SDS011;18267;52.234;7.444;2023-05-10T00:03:32;2.88;;;2.67;;
31660;SDS011;18267;52.234;7.444;2023-05-10T00:05:58;3.38;;;3.10;;
31660;SDS011;18267;52.234;7.444;2023-05-10T00:08:23;2.97;;;2.78;;
31660;SDS011;18267;52.234;7.444;2023-05-10T00:10:49;2.95;;;2.70;;
31660;SDS011;18267;52.234;7.444;2023-05-10T00:13:14;3.22;;;2.92;;
31660;SDS011;18267;52.234;7.444;2023-05-10T00:15:40;3.67;;;3.00;;
31660;SDS011;18267;52.234;7.444;2023-05-10T00:18:05;4.88;;;2.92;;
31660;SDS011;18267;52.234;7.444;2023-05-10T00:20:31;4.20;;;3.63;;
31660;SDS011;18267;52.234;7.444;2023-05-10T00:22:57;3.38;;;3.13;;
31660;SDS011;18267;52.234;7.444;2023-05-10T00:25:22;4.03;;;3.00;;
31660;SDS011;18267;52.234;7.444;2023-05-10T00:27:48;3.47;;;3.17;;
31660;SDS011;18267;52.234;7.444;2023-05-10T00:30:14;3.55;;;3.25;;
31660;SDS011;18267;52.234;7.444;2023-05-10T00:32:40;5.53;;;3.55;;
31660;SDS011;18267;52.234;7.444;2023-05-10T00:35:05;4.20;;;3.30;;
31660;SDS011;18267;52.234;7.444;2023-05-10T00:37:31;6.18;;;4.13;;
31660;SDS011;18267;52.234;7.444;2023-05-10T00:39:57;4.45;;;4.05;;
31660;SDS011;18267;52.234;7.444;2023-05-10T00:42:22;4.35;;;3.95;;
31660;SDS011;18267;52.234;7.444;2023-05-10T00:44:48;4.55;;;3.95;;
31660;SDS011;18267;52.234;7.444;2023-05-10T00:47:13;5.20;;;4.70;;
31660;SDS011;18267;52.234;7.444;2023-05-10T00:49:40;4.32;;;3.88;;
31660;SDS011;18267;52.234;7.444;2023-05-10T00:52:06;5.00;;;4.55;;
31660;SDS011;18267;52.234;7.444;2023-05-10T00:54:32;5.25;;;4.75;;
31660;SDS011;18267;52.234;7.444;2023-05-10T00:56:57;5.82;;;5.20;;
31660;SDS011;18267;52.234;7.444;2023-05-10T00:59:23;4.82;;;4.35;;
31660;SDS011;18267;52.234;7.444;2023-05-10T01:01:49;4.78;;;4.28;;
31660;SDS011;18267;52.234;7.444;2023-05-10T01:04:16;6.43;;;4.32;;
31660;SDS011;18267;52.234;7.444;2023-05-10T01:06:43;5.25;;;4.65;;
31660;SDS011;18267;52.234;7.444;2023-05-10T01:09:08;5.10;;;4.55;;
31660;SDS011;18267;52.234;7.444;2023-05-10T01:11:35;5.75;;;4.90;;
31660;SDS011;18267;52.234;7.444;2023-05-10T01:14:02;4.80;;;4.32;;
31660;SDS011;18267;52.234;7.444;2023-05-10T01:16:28;5.63;;;4.22;;
31660;SDS011;18267;52.234;7.444;2023-05-10T01:18:57;5.25;;;4.28;;
31660;SDS011;18267;52.234;7.444;2023-05-10T01:35:16;1.80;;;1.70;;
31660;SDS011;18267;52.234;7.444;2023-05-10T01:43:48;5.13;;;2.20;;
31660;SDS011;18267;52.234;7.444;2023-05-10T01:46:52;3.40;;;2.05;;
31660;SDS011;18267;52.234;7.444;2023-05-10T01:49:23;11.75;;;2.30;;
31660;SDS011;18267;52.234;7.444;2023-05-10T01:51:53;2.60;;;2.40;;
31660;SDS011;18267;52.234;7.444;2023-05-10T01:54:21;3.08;;;2.33;;
31660;SDS011;18267;52.234;7.444;2023-05-10T01:56:50;3.33;;;3.00;;
31660;SDS011;18267;52.234;7.444;2023-05-10T01:59:20;3.72;;;3.22;;
31660;SDS011;18267;52.234;7.444;2023-05-10T02:01:48;3.92;;;3.55;;
31660;SDS011;18267;52.234;7.444;2023-05-10T02:04:16;4.32;;;3.00;;
31660;SDS011;18267;52.234;7.444;2023-05-10T02:06:44;4.38;;;3.78;;
31660;SDS011;18267;52.234;7.444;2023-05-10T02:09:11;4.65;;;3.47;;
31660;SDS011;18267;52.234;7.444;2023-05-10T02:11:38;4.13;;;3.65;;
31660;SDS011;18267;52.234;7.444;2023-05-10T02:14:07;5.32;;;4.53;;
31660;SDS011;18267;52.234;7.444;2023-05-10T02:16:35;3.92;;;3.63;;
31660;SDS011;18267;52.234;7.444;2023-05-10T02:19:01;4.45;;;4.05;;
31660;SDS011;18267;52.234;7.444;2023-05-10T02:21:27;4.30;;;3.90;;
31660;SDS011;18267;52.234;7.444;2023-05-10T02:23:54;3.95;;;3.53;;
31660;SDS011;18267;52.234;7.444;2023-05-10T02:26:21;4.38;;;3.33;;
31660;SDS011;18267;52.234;7.444;2023-05-10T02:28:49;5.65;;;3.97;;
31660;SDS011;18267;52.234;7.444;2023-05-10T02:31:16;4.03;;;3.53;;
31660;SDS011;18267;52.234;7.444;2023-05-10T02:33:42;4.05;;;3.75;;
31660;SDS011;18267;52.234;7.444;2023-05-10T02:36:10;4.47;;;4.07;;
31660;SDS011;18267;52.234;7.444;2023-05-10T02:38:37;4.07;;;3.47;;
31660;SDS011;18267;52.234;7.444;2023-05-10T02:41:04;5.75;;;3.80;;
31660;SDS011;18267;52.234;7.444;2023-05-10T02:43:33;5.07;;;4.15;;
31660;SDS011;18267;52.234;7.444;2023-05-10T02:46:00;3.63;;;3.30;;
31660;SDS011;18267;52.234;7.444;2023-05-10T02:48:26;4.78;;;3.38;;
31660;SDS011;18267;52.234;7.444;2023-05-10T02:50:52;4.45;;;4.03;;
31660;SDS011;18267;52.234;7.444;2023-05-10T02:53:21;9.57;;;4.10;;
31660;SDS011;18267;52.234;7.444;2023-05-10T02:55:49;4.28;;;3.25;;
31660;SDS011;18267;52.234;7.444;2023-05-10T02:58:16;4.60;;;3.17;;
31660;SDS011;18267;52.234;7.444;2023-05-10T03:00:44;4.35;;;3.72;;
31660;SDS011;18267;52.234;7.444;2023-05-10T03:03:10;3.58;;;3.28;;
31660;SDS011;18267;52.234;7.444;2023-05-10T03:05:35;5.28;;;3.60;;
31660;SDS011;18267;52.234;7.444;2023-05-10T03:08:01;6.13;;;3.60;;
31660;SDS011;18267;52.234;7.444;2023-05-10T03:10:29;3.47;;;3.17;;
31660;SDS011;18267;52.234;7.444;2023-05-10T03:13:07;5.55;;;3.70;;
31660;SDS011;18267;52.234;7.444;2023-05-10T03:15:49;4.05;;;3.60;;
31660;SDS011;18267;52.234;7.444;2023-05-10T03:21:30;5.45;;;3.65;;
31660;SDS011;18267;52.234;7.444;2023-05-10T03:24:07;4.40;;;3.83;;
31660;SDS011;18267;52.234;7.444;2023-05-10T03:26:34;5.70;;;3.63;;
31660;SDS011;18267;52.234;7.444;2023-05-10T03:29:01;5.82;;;3.53;;
31660;SDS011;18267;52.234;7.444;2023-05-10T03:31:27;6.25;;;3.35;;
31660;SDS011;18267;52.234;7.444;2023-05-10T03:33:53;6.63;;;3.38;;
31660;SDS011;18267;52.234;7.444;2023-05-10T03:36:19;4.85;;;3.00;;
31660;SDS011;18267;52.234;7.444;2023-05-10T03:38:45;3.78;;;3.47;;
31660;SDS011;18267;52.234;7.444;2023-05-10T03:41:10;5.90;;;3.65;;
31660;SDS011;18267;52.234;7.444;2023-05-10T03:43:36;7.40;;;3.47;;
31660;SDS011;18267;52.234;7.444;2023-05-10T03:46:02;8.48;;;4.28;;
31660;SDS011;18267;52.234;7.444;2023-05-10T03:48:28;8.35;;;4.43;;
31660;SDS011;18267;52.234;7.444;2023-05-10T03:50:55;4.63;;;4.10;;
31660;SDS011;18267;52.234;7.444;2023-05-10T03:53:20;4.15;;;3.72;;
31660;SDS011;18267;52.234;7.444;2023-05-10T03:55:46;7.63;;;4.38;;
31660;SDS011;18267;52.234;7.444;2023-05-10T03:58:11;4.10;;;3.72;;
31660;SDS011;18267;52.234;7.444;2023-05-10T04:00:37;5.50;;;4.43;;
31660;SDS011;18267;52.234;7.444;2023-05-10T04:03:08;6.03;;;4.65;;
31660;SDS011;18267;52.234;7.444;2023-05-10T04:05:37;5.18;;;4.10;;
31660;SDS011;18267;52.234;7.444;2023-05-10T04:08:03;7.72;;;4.07;;
31660;SDS011;18267;52.234;7.444;2023-05-10T04:10:29;5.78;;;4.20;;
31660;SDS011;18267;52.234;7.444;2023-05-10T04:12:54;5.80;;;4.35;;
31660;SDS011;18267;52.234;7.444;2023-05-10T04:15:20;6.47;;;4.03;;
31660;SDS011;18267;52.234;7.444;2023-05-10T04:17:45;7.50;;;4.93;;
31660;SDS011;18267;52.234;7.444;2023-05-10T04:20:11;4.57;;;3.88;;
31660;SDS011;18267;52.234;7.444;2023-05-10T04:22:37;7.50;;;4.32;;
31660;SDS011;18267;52.234;7.444;2023-05-10T04:25:03;5.15;;;4.13;;
31660;SDS011;18267;52.234;7.444;2023-05-10T04:27:29;5.63;;;4.13;;
31660;SDS011;18267;52.234;7.444;2023-05-10T04:29:55;8.38;;;4.38;;
31660;SDS011;18267;52.234;7.444;2023-05-10T04:32:21;9.55;;;5.18;;
31660;SDS011;18267;52.234;7.444;2023-05-10T04:34:47;4.90;;;4.32;;
31660;SDS011;18267;52.234;7.444;2023-05-10T04:37:12;7.32;;;5.25;;
31660;SDS011;18267;52.234;7.444;2023-05-10T04:39:38;5.93;;;5.22;;
31660;SDS011;18267;52.234;7.444;2023-05-10T04:42:03;5.75;;;4.57;;
31660;SDS011;18267;52.234;7.444;2023-05-10T04:44:30;8.57;;;5.07;;
31660;SDS011;18267;52.234;7.444;2023-05-10T04:46:59;8.25;;;5.43;;
31660;SDS011;18267;52.234;7.444;2023-05-10T04:49:25;8.00;;;5.47;;
31660;SDS011;18267;52.234;7.444;2023-05-10T04:51:50;7.80;;;6.00;;
31660;SDS011;18267;52.234;7.444;2023-05-10T04:54:15;9.98;;;5.65;;
31660;SDS011;18267;52.234;7.444;2023-05-10T04:56:41;9.25;;;6.05;;
31660;SDS011;18267;52.234;7.444;2023-05-10T04:59:07;7.97;;;6.05;;
31660;SDS011;18267;52.234;7.444;2023-05-10T05:01:32;10.30;;;5.90;;
31660;SDS011;18267;52.234;7.444;2023-05-10T05:03:58;9.15;;;6.18;;
31660;SDS011;18267;52.234;7.444;2023-05-10T05:06:24;9.02;;;6.53;;
31660;SDS011;18267;52.234;7.444;2023-05-10T05:08:50;8.80;;;6.38;;
31660;SDS011;18267;52.234;7.444;2023-05-10T05:11:15;10.75;;;6.72;;
31660;SDS011;18267;52.234;7.444;2023-05-10T05:13:41;11.40;;;6.55;;
31660;SDS011;18267;52.234;7.444;2023-05-10T05:16:07;9.50;;;6.68;;
31660;SDS011;18267;52.234;7.444;2023-05-10T05:18:32;10.18;;;7.47;;
31660;SDS011;18267;52.234;7.444;2023-05-10T05:20:59;11.80;;;7.50;;
31660;SDS011;18267;52.234;7.444;2023-05-10T05:23:24;10.88;;;7.28;;
31660;SDS011;18267;52.234;7.444;2023-05-10T05:25:53;15.30;;;7.28;;
31660;SDS011;18267;52.234;7.444;2023-05-10T05:28:19;9.40;;;6.75;;
31660;SDS011;18267;52.234;7.444;2023-05-10T05:30:45;15.45;;;7.50;;
31660;SDS011;18267;52.234;7.444;2023-05-10T05:33:13;14.07;;;7.85;;
31660;SDS011;18267;52.234;7.444;2023-05-10T05:35:40;14.60;;;8.40;;
31660;SDS011;18267;52.234;7.444;2023-05-10T05:38:09;13.48;;;7.85;;
31660;SDS011;18267;52.234;7.444;2023-05-10T05:40:35;20.15;;;9.13;;
31660;SDS011;18267;52.234;7.444;2023-05-10T05:43:00;19.25;;;10.45;;
31660;SDS011;18267;52.234;7.444;2023-05-10T05:45:26;28.38;;;9.95;;
31660;SDS011;18267;52.234;7.444;2023-05-10T05:47:51;21.30;;;10.43;;
31660;SDS011;18267;52.234;7.444;2023-05-10T05:50:17;17.60;;;10.75;;
31660;SDS011;18267;52.234;7.444;2023-05-10T05:52:42;22.75;;;11.40;;
31660;SDS011;18267;52.234;7.444;2023-05-10T05:55:08;19.02;;;9.80;;
31660;SDS011;18267;52.234;7.444;2023-05-10T05:57:33;18.60;;;11.13;;
31660;SDS011;18267;52.234;7.444;2023-05-10T05:59:59;24.20;;;11.80;;
31660;SDS011;18267;52.234;7.444;2023-05-10T06:02:24;26.55;;;11.88;;
31660;SDS011;18267;52.234;7.444;2023-05-10T06:04:50;22.58;;;11.48;;
31660;SDS011;18267;52.234;7.444;2023-05-10T06:07:15;27.25;;;13.00;;
31660;SDS011;18267;52.234;7.444;2023-05-10T06:09:41;31.70;;;13.80;;
31660;SDS011;18267;52.234;7.444;2023-05-10T06:12:07;26.23;;;13.02;;
31660;SDS011;18267;52.234;7.444;2023-05-10T06:14:32;24.42;;;13.13;;
31660;SDS011;18267;52.234;7.444;2023-05-10T06:16:58;24.23;;;13.18;;
31660;SDS011;18267;52.234;7.444;2023-05-10T06:19:24;28.05;;;13.10;;
31660;SDS011;18267;52.234;7.444;2023-05-10T06:21:51;31.02;;;13.82;;
31660;SDS011;18267;52.234;7.444;2023-05-10T06:24:16;30.48;;;14.73;;
31660;SDS011;18267;52.234;7.444;2023-05-10T06:26:42;25.20;;;13.38;;
31660;SDS011;18267;52.234;7.444;2023-05-10T06:29:07;27.92;;;13.25;;
31660;SDS011;18267;52.234;7.444;2023-05-10T06:31:33;27.50;;;14.25;;
31660;SDS011;18267;52.234;7.444;2023-05-10T06:33:58;33.40;;;14.43;;
31660;SDS011;18267;52.234;7.444;2023-05-10T06:36:24;28.80;;;14.52;;
31660;SDS011;18267;52.234;7.444;2023-05-10T06:38:51;35.38;;;14.73;;
31660;SDS011;18267;52.234;7.444;2023-05-10T06:41:16;32.83;;;16.42;;
31660;SDS011;18267;52.234;7.444;2023-05-10T06:43:42;35.15;;;15.30;;
31660;SDS011;18267;52.234;7.444;2023-05-10T06:46:08;33.38;;;16.48;;
31660;SDS011;18267;52.234;7.444;2023-05-10T06:48:33;36.58;;;17.15;;
31660;SDS011;18267;52.234;7.444;2023-05-10T06:50:59;39.83;;;17.52;;
31660;SDS011;18267;52.234;7.444;2023-05-10T06:53:25;40.30;;;16.40;;
31660;SDS011;18267;52.234;7.444;2023-05-10T06:55:50;40.20;;;17.17;;
31660;SDS011;18267;52.234;7.444;2023-05-10T06:58:16;42.95;;;19.00;;
31660;SDS011;18267;52.234;7.444;2023-05-10T07:00:42;36.30;;;17.88;;
31660;SDS011;18267;52.234;7.444;2023-05-10T07:03:10;44.63;;;19.27;;
31660;SDS011;18267;52.234;7.444;2023-05-10T07:05:35;41.55;;;17.48;;
31660;SDS011;18267;52.234;7.444;2023-05-10T07:08:01;41.70;;;18.20;;
31660;SDS011;18267;52.234;7.444;2023-05-10T07:10:27;46.70;;;18.77;;
31660;SDS011;18267;52.234;7.444;2023-05-10T07:12:52;45.33;;;19.23;;
31660;SDS011;18267;52.234;7.444;2023-05-10T07:15:18;44.95;;;18.17;;
31660;SDS011;18267;52.234;7.444;2023-05-10T07:17:43;45.42;;;19.48;;
31660;SDS011;18267;52.234;7.444;2023-05-10T07:20:10;42.40;;;18.70;;
31660;SDS011;18267;52.234;7.444;2023-05-10T07:22:36;43.38;;;18.63;;
31660;SDS011;18267;52.234;7.444;2023-05-10T07:25:01;43.80;;;18.25;;
31660;SDS011;18267;52.234;7.444;2023-05-10T07:27:27;41.00;;;17.63;;
31660;SDS011;18267;52.234;7.444;2023-05-10T07:29:52;43.30;;;19.50;;
31660;SDS011;18267;52.234;7.444;2023-05-10T07:32:19;40.67;;;18.23;;
31660;SDS011;18267;52.234;7.444;2023-05-10T07:34:45;40.90;;;18.77;;
31660;SDS011;18267;52.234;7.444;2023-05-10T07:37:10;34.63;;;18.38;;
31660;SDS011;18267;52.234;7.444;2023-05-10T07:39:36;38.20;;;17.88;;
31660;SDS011;18267;52.234;7.444;2023-05-10T07:42:02;37.65;;;17.98;;
31660;SDS011;18267;52.234;7.444;2023-05-10T07:44:27;34.75;;;17.13;;
31660;SDS011;18267;52.234;7.444;2023-05-10T07:46:53;37.42;;;18.10;;
31660;SDS011;18267;52.234;7.444;2023-05-10T07:49:18;41.47;;;17.77;;
31660;SDS011;18267;52.234;7.444;2023-05-10T07:51:44;39.17;;;18.45;;
31660;SDS011;18267;52.234;7.444;2023-05-10T07:54:09;43.97;;;18.17;;
31660;SDS011;18267;52.234;7.444;2023-05-10T07:56:35;40.33;;;16.85;;
31660;SDS011;18267;52.234;7.444;2023-05-10T07:59:02;35.50;;;16.58;;
31660;SDS011;18267;52.234;7.444;2023-05-10T08:01:32;32.78;;;15.90;;
31660;SDS011;18267;52.234;7.444;2023-05-10T08:03:58;32.92;;;16.08;;
31660;SDS011;18267;52.234;7.444;2023-05-10T08:06:24;35.80;;;15.15;;
31660;SDS011;18267;52.234;7.444;2023-05-10T08:08:52;31.83;;;15.68;;
31660;SDS011;18267;52.234;7.444;2023-05-10T08:11:19;34.25;;;15.60;;
31660;SDS011;18267;52.234;7.444;2023-05-10T08:13:45;39.80;;;15.80;;
31660;SDS011;18267;52.234;7.444;2023-05-10T08:16:11;34.75;;;15.00;;
31660;SDS011;18267;52.234;7.444;2023-05-10T08:18:37;34.00;;;15.15;;
31660;SDS011;18267;52.234;7.444;2023-05-10T08:21:03;26.80;;;14.32;;
31660;SDS011;18267;52.234;7.444;2023-05-10T08:23:29;37.78;;;15.77;;
31660;SDS011;18267;52.234;7.444;2023-05-10T08:25:55;32.45;;;16.58;;
31660;SDS011;18267;52.234;7.444;2023-05-10T08:28:20;29.63;;;15.73;;
31660;SDS011;18267;52.234;7.444;2023-05-10T08:30:46;37.90;;;17.20;;
31660;SDS011;18267;52.234;7.444;2023-05-10T08:33:11;33.72;;;16.55;;
31660;SDS011;18267;52.234;7.444;2023-05-10T08:35:37;31.10;;;17.55;;
31660;SDS011;18267;52.234;7.444;2023-05-10T08:38:02;31.50;;;15.13;;
31660;SDS011;18267;52.234;7.444;2023-05-10T08:40:28;28.50;;;16.02;;
31660;SDS011;18267;52.234;7.444;2023-05-10T08:43:07;36.67;;;16.58;;
31660;SDS011;18267;52.234;7.444;2023-05-10T08:45:36;31.45;;;15.57;;
31660;SDS011;18267;52.234;7.444;2023-05-10T08:48:06;32.47;;;17.15;;
31660;SDS011;18267;52.234;7.444;2023-05-10T08:50:34;29.67;;;15.95;;
31660;SDS011;18267;52.234;7.444;2023-05-10T08:53:03;29.40;;;15.43;;
31660;SDS011;18267;52.234;7.444;2023-05-10T08:55:30;32.40;;;16.52;;
31660;SDS011;18267;52.234;7.444;2023-05-10T08:57:57;35.20;;;16.33;;
31660;SDS011;18267;52.234;7.444;2023-05-10T09:00:23;32.60;;;16.83;;
31660;SDS011;18267;52.234;7.444;2023-05-10T09:02:49;35.70;;;16.17;;
31660;SDS011;18267;52.234;7.444;2023-05-10T09:05:15;35.20;;;17.75;;
31660;SDS011;18267;52.234;7.444;2023-05-10T09:07:42;34.00;;;16.05;;
31660;SDS011;18267;52.234;7.444;2023-05-10T09:10:08;32.22;;;15.85;;
31660;SDS011;18267;52.234;7.444;2023-05-10T09:12:34;35.78;;;16.27;;
31660;SDS011;18267;52.234;7.444;2023-05-10T09:15:00;41.63;;;17.38;;
31660;SDS011;18267;52.234;7.444;2023-05-10T09:17:27;31.92;;;16.17;;
31660;SDS011;18267;52.234;7.444;2023-05-10T09:20:01;29.95;;;15.02;;
31660;SDS011;18267;52.234;7.444;2023-05-10T09:22:29;29.13;;;14.05;;
31660;SDS011;18267;52.234;7.444;2023-05-10T09:25:08;30.98;;;15.27;;
31660;SDS011;18267;52.234;7.444;2023-05-10T09:30:31;23.85;;;12.85;;
31660;SDS011;18267;52.234;7.444;2023-05-10T09:33:05;28.13;;;14.27;;
31660;SDS011;18267;52.234;7.444;2023-05-10T09:35:33;26.42;;;13.73;;
31660;SDS011;18267;52.234;7.444;2023-05-10T09:38:00;26.40;;;14.15;;
31660;SDS011;18267;52.234;7.444;2023-05-10T09:40:28;34.88;;;15.65;;
31660;SDS011;18267;52.234;7.444;2023-05-10T09:45:25;27.45;;;15.25;;
31660;SDS011;18267;52.234;7.444;2023-05-10T09:47:52;35.05;;;16.38;;
31660;SDS011;18267;52.234;7.444;2023-05-10T09:50:18;35.78;;;16.67;;
31660;SDS011;18267;52.234;7.444;2023-05-10T09:55:25;27.77;;;14.00;;
31660;SDS011;18267;52.234;7.444;2023-05-10T09:58:03;28.92;;;14.23;;
31660;SDS011;18267;52.234;7.444;2023-05-10T10:00:47;29.05;;;13.65;;
31660;SDS011;18267;52.234;7.444;2023-05-10T10:03:18;22.52;;;12.75;;
31660;SDS011;18267;52.234;7.444;2023-05-10T10:05:45;33.15;;;13.13;;
31660;SDS011;18267;52.234;7.444;2023-05-10T10:08:12;28.90;;;13.05;;
31660;SDS011;18267;52.234;7.444;2023-05-10T10:10:39;27.25;;;12.98;;
31660;SDS011;18267;52.234;7.444;2023-05-10T10:13:05;26.83;;;12.63;;
31660;SDS011;18267;52.234;7.444;2023-05-10T10:15:32;28.10;;;12.60;;
31660;SDS011;18267;52.234;7.444;2023-05-10T10:17:59;33.13;;;13.68;;
31660;SDS011;18267;52.234;7.444;2023-05-10T10:20:25;25.90;;;12.45;;
31660;SDS011;18267;52.234;7.444;2023-05-10T10:22:52;24.42;;;10.85;;
31660;SDS011;18267;52.234;7.444;2023-05-10T10:25:18;29.00;;;12.82;;
31660;SDS011;18267;52.234;7.444;2023-05-10T10:36:09;22.38;;;10.25;;
31660;SDS011;18267;52.234;7.444;2023-05-10T10:38:36;22.17;;;11.18;;
31660;SDS011;18267;52.234;7.444;2023-05-10T10:41:35;23.80;;;11.07;;
31660;SDS011;18267;52.234;7.444;2023-05-10T10:49:33;25.25;;;12.50;;
31660;SDS011;18267;52.234;7.444;2023-05-10T10:58:03;20.98;;;10.93;;
31660;SDS011;18267;52.234;7.444;2023-05-10T11:00:46;25.13;;;10.98;;
31660;SDS011;18267;52.234;7.444;2023-05-10T11:03:33;25.48;;;10.73;;
31660;SDS011;18267;52.234;7.444;2023-05-10T11:05:59;22.83;;;11.07;;
31660;SDS011;18267;52.234;7.444;2023-05-10T11:08:27;24.92;;;11.52;;
31660;SDS011;18267;52.234;7.444;2023-05-10T11:15:55;20.48;;;10.32;;
31660;SDS011;18267;52.234;7.444;2023-05-10T11:20:58;23.90;;;10.20;;
31660;SDS011;18267;52.234;7.444;2023-05-10T11:23:31;24.42;;;10.15;;
31660;SDS011;18267;52.234;7.444;2023-05-10T11:25:58;17.42;;;9.02;;
31660;SDS011;18267;52.234;7.444;2023-05-10T11:28:26;19.60;;;8.73;;
31660;SDS011;18267;52.234;7.444;2023-05-10T11:30:53;16.75;;;9.30;;
31660;SDS011;18267;52.234;7.444;2023-05-10T11:33:19;20.73;;;8.98;;
31660;SDS011;18267;52.234;7.444;2023-05-10T11:35:45;22.30;;;8.43;;
31660;SDS011;18267;52.234;7.444;2023-05-10T11:38:12;19.05;;;9.25;;
31660;SDS011;18267;52.234;7.444;2023-05-10T11:40:38;22.95;;;9.98;;
31660;SDS011;18267;52.234;7.444;2023-05-10T11:43:04;22.65;;;10.13;;
31660;SDS011;18267;52.234;7.444;2023-05-10T11:45:33;23.75;;;10.15;;
31660;SDS011;18267;52.234;7.444;2023-05-10T11:48:00;27.95;;;11.77;;
31660;SDS011;18267;52.234;7.444;2023-05-10T11:50:26;23.25;;;11.32;;
31660;SDS011;18267;52.234;7.444;2023-05-10T11:52:52;27.63;;;12.30;;
31660;SDS011;18267;52.234;7.444;2023-05-10T11:55:22;28.70;;;12.02;;
31660;SDS011;18267;52.234;7.444;2023-05-10T11:57:52;24.92;;;10.13;;
31660;SDS011;18267;52.234;7.444;2023-05-10T12:00:19;22.27;;;10.65;;
31660;SDS011;18267;52.234;7.444;2023-05-10T12:02:45;20.45;;;10.88;;
31660;SDS011;18267;52.234;7.444;2023-05-10T12:05:10;27.25;;;11.88;;
31660;SDS011;18267;52.234;7.444;2023-05-10T12:07:36;24.45;;;11.13;;
31660;SDS011;18267;52.234;7.444;2023-05-10T12:10:08;21.80;;;9.60;;
31660;SDS011;18267;52.234;7.444;2023-05-10T12:12:43;16.75;;;9.57;;
31660;SDS011;18267;52.234;7.444;2023-05-10T12:15:20;23.55;;;10.52;;
31660;SDS011;18267;52.234;7.444;2023-05-10T12:17:47;16.90;;;9.38;;
31660;SDS011;18267;52.234;7.444;2023-05-10T12:20:20;23.05;;;10.82;;
31660;SDS011;18267;52.234;7.444;2023-05-10T12:22:47;20.80;;;10.27;;
31660;SDS011;18267;52.234;7.444;2023-05-10T12:25:15;14.70;;;7.95;;
31660;SDS011;18267;52.234;7.444;2023-05-10T12:27:47;17.50;;;8.35;;
31660;SDS011;18267;52.234;7.444;2023-05-10T12:30:13;16.35;;;8.25;;
31660;SDS011;18267;52.234;7.444;2023-05-10T12:32:50;14.00;;;7.93;;
31660;SDS011;18267;52.234;7.444;2023-05-10T12:35:17;16.05;;;7.40;;
31660;SDS011;18267;52.234;7.444;2023-05-10T12:37:46;18.67;;;8.05;;
31660;SDS011;18267;52.234;7.444;2023-05-10T12:40:12;16.42;;;8.82;;
31660;SDS011;18267;52.234;7.444;2023-05-10T12:42:38;20.15;;;8.73;;
31660;SDS011;18267;52.234;7.444;2023-05-10T12:45:05;13.98;;;7.78;;
31660;SDS011;18267;52.234;7.444;2023-05-10T12:47:31;18.05;;;8.18;;
31660;SDS011;18267;52.234;7.444;2023-05-10T12:49:57;18.92;;;8.50;;
31660;SDS011;18267;52.234;7.444;2023-05-10T12:52:24;17.60;;;9.50;;
31660;SDS011;18267;52.234;7.444;2023-05-10T12:54:50;18.83;;;8.77;;
31660;SDS011;18267;52.234;7.444;2023-05-10T12:57:20;17.27;;;8.73;;
31660;SDS011;18267;52.234;7.444;2023-05-10T12:59:46;18.80;;;8.95;;
31660;SDS011;18267;52.234;7.444;2023-05-10T13:02:12;19.90;;;8.90;;
31660;SDS011;18267;52.234;7.444;2023-05-10T13:04:38;13.90;;;7.63;;
31660;SDS011;18267;52.234;7.444;2023-05-10T13:07:05;17.48;;;8.02;;
31660;SDS011;18267;52.234;7.444;2023-05-10T13:09:34;17.90;;;7.82;;
31660;SDS011;18267;52.234;7.444;2023-05-10T13:11:59;13.98;;;7.18;;
31660;SDS011;18267;52.234;7.444;2023-05-10T13:14:25;13.95;;;7.43;;
31660;SDS011;18267;52.234;7.444;2023-05-10T13:16:51;11.50;;;7.38;;
31660;SDS011;18267;52.234;7.444;2023-05-10T13:19:17;14.45;;;8.02;;
31660;SDS011;18267;52.234;7.444;2023-05-10T13:21:43;13.73;;;7.38;;
31660;SDS011;18267;52.234;7.444;2023-05-10T13:24:11;11.05;;;6.72;;
31660;SDS011;18267;52.234;7.444;2023-05-10T13:26:39;19.25;;;8.75;;
31660;SDS011;18267;52.234;7.444;2023-05-10T13:29:05;14.98;;;7.97;;
31660;SDS011;18267;52.234;7.444;2023-05-10T13:31:31;14.18;;;8.07;;
31660;SDS011;18267;52.234;7.444;2023-05-10T13:33:57;12.27;;;7.68;;
31660;SDS011;18267;52.234;7.444;2023-05-10T13:36:22;17.23;;;8.55;;
31660;SDS011;18267;52.234;7.444;2023-05-10T13:38:49;19.90;;;8.43;;
31660;SDS011;18267;52.234;7.444;2023-05-10T13:41:15;14.65;;;8.63;;
31660;SDS011;18267;52.234;7.444;2023-05-10T13:43:40;14.55;;;8.45;;
31660;SDS011;18267;52.234;7.444;2023-05-10T13:46:06;14.82;;;8.30;;
31660;SDS011;18267;52.234;7.444;2023-05-10T13:48:31;15.52;;;8.60;;
31660;SDS011;18267;52.234;7.444;2023-05-10T13:50:57;16.48;;;8.35;;
31660;SDS011;18267;52.234;7.444;2023-05-10T13:53:22;20.67;;;8.25;;
31660;SDS011;18267;52.234;7.444;2023-05-10T13:55:48;15.70;;;7.70;;
31660;SDS011;18267;52.234;7.444;2023-05-10T13:58:14;11.65;;;6.35;;
31660;SDS011;18267;52.234;7.444;2023-05-10T14:00:39;13.90;;;6.25;;
31660;SDS011;18267;52.234;7.444;2023-05-10T14:03:05;15.63;;;7.43;;
31660;SDS011;18267;52.234;7.444;2023-05-10T14:05:31;14.15;;;7.25;;
31660;SDS011;18267;52.234;7.444;2023-05-10T14:07:57;11.05;;;7.13;;
31660;SDS011;18267;52.234;7.444;2023-05-10T14:10:23;18.13;;;7.53;;
31660;SDS011;18267;52.234;7.444;2023-05-10T14:12:49;11.15;;;7.25;;
31660;SDS011;18267;52.234;7.444;2023-05-10T14:15:15;14.38;;;6.85;;
31660;SDS011;18267;52.234;7.444;2023-05-10T14:17:40;11.60;;;6.50;;
31660;SDS011;18267;52.234;7.444;2023-05-10T14:20:06;10.57;;;6.57;;
31660;SDS011;18267;52.234;7.444;2023-05-10T14:22:32;11.45;;;6.32;;
31660;SDS011;18267;52.234;7.444;2023-05-10T14:24:58;11.48;;;7.63;;
31660;SDS011;18267;52.234;7.444;2023-05-10T14:27:23;12.15;;;7.22;;
31660;SDS011;18267;52.234;7.444;2023-05-10T14:29:49;19.23;;;8.32;;
31660;SDS011;18267;52.234;7.444;2023-05-10T14:32:15;16.00;;;8.35;;
31660;SDS011;18267;52.234;7.444;2023-05-10T14:34:40;16.52;;;7.70;;
31660;SDS011;18267;52.234;7.444;2023-05-10T14:37:06;13.23;;;7.63;;
31660;SDS011;18267;52.234;7.444;2023-05-10T14:39:31;10.40;;;6.63;;
31660;SDS011;18267;52.234;7.444;2023-05-10T14:41:58;17.40;;;7.15;;
31660;SDS011;18267;52.234;7.444;2023-05-10T14:44:23;11.35;;;7.00;;
31660;SDS011;18267;52.234;7.444;2023-05-10T14:46:49;15.18;;;7.03;;
31660;SDS011;18267;52.234;7.444;2023-05-10T14:49:14;16.10;;;7.70;;
31660;SDS011;18267;52.234;7.444;2023-05-10T14:51:40;17.60;;;7.78;;
31660;SDS011;18267;52.234;7.444;2023-05-10T14:54:06;13.13;;;7.35;;
31660;SDS011;18267;52.234;7.444;2023-05-10T14:56:31;11.55;;;5.97;;
31660;SDS011;18267;52.234;7.444;2023-05-10T14:58:57;10.55;;;5.93;;
31660;SDS011;18267;52.234;7.444;2023-05-10T15:01:23;14.25;;;6.95;;
31660;SDS011;18267;52.234;7.444;2023-05-10T15:03:49;10.35;;;6.00;;
31660;SDS011;18267;52.234;7.444;2023-05-10T15:06:15;10.50;;;6.15;;
31660;SDS011;18267;52.234;7.444;2023-05-10T15:08:41;9.35;;;6.28;;
31660;SDS011;18267;52.234;7.444;2023-05-10T15:11:06;11.75;;;6.35;;
31660;SDS011;18267;52.234;7.444;2023-05-10T15:13:32;14.52;;;6.25;;
31660;SDS011;18267;52.234;7.444;2023-05-10T15:15:58;16.58;;;6.35;;
31660;SDS011;18267;52.234;7.444;2023-05-10T15:18:23;14.63;;;6.45;;
31660;SDS011;18267;52.234;7.444;2023-05-10T15:20:49;14.80;;;6.82;;
31660;SDS011;18267;52.234;7.444;2023-05-10T15:23:14;12.32;;;6.60;;
31660;SDS011;18267;52.234;7.444;2023-05-10T15:25:40;11.93;;;6.35;;
31660;SDS011;18267;52.234;7.444;2023-05-10T15:28:06;11.77;;;6.25;;
31660;SDS011;18267;52.234;7.444;2023-05-10T15:30:32;13.20;;;6.30;;